logo
Search for airport 
image banner adimage banner adimage banner ad
image banner ad

EHS010 - St. Jacobiparochie

Located in , Netherlands

ICAO - , IATA -

Data provided by Airmate  

General information

Coordinates: N53°17'12" E5°36'20"
Elevation is feet MSL.
 
View others Airports in Friesland

Operational data

Special qualification required
Current time UTC:
Current local time:
Weather at : EHLW - Leeuwarden/Leeuwarden ( 12 km )
METAR: EHLW 141655Z AUTO 24016KT 200V270 9999 BKN030 OVC036 17/12 Q1010 BLU
TAF: TAF EHLW 141648Z 1417/1505 24015KT 9999 SCT025 SCT035 BECMG 1419/1421 22007KT
View NOTAMs / SUP AIP / TFR affecting this airport [VIEW]
Communications frequencies: [VIEW]

Runways:

Airport contact information

Address: Netherlands

Satellite view of EHS010